Main page
METAR-TAF:

METAR-TAF

Airports :

Turkmenabat Airport

Türkmenabat, Turkmenistan

latitude: 39-05-00N, longitude: 063-36-48E, elevation: 192 m

Current weather observation

The report was made 22 minutes ago, at 06:00 UTC
Wind 4 kt from the East, varying between East/Northeast and Southeast
Temperature 21°C
Humidity 26%
Pressure 1018 hPa
Visibility 10 km or more
no clouds below 1500 m and no cumulonimbus

METAR: UTAV 230600Z 10004KT 060V130 CAVOK 21/01 Q1018 NOSIG

Time: 11:22 (06:22 UTC)

Forecast

The report was made 1 hour and 52 minutes ago, at 04:30 UTC
Forecast valid from 23 at 06 UTC to 24 at 06 UTC
Wind 14 kt from the East/Northeast
Visibility: 6000 m
Scattered clouds at a height of 5000 ft
Scattered clouds at a height of 10000 ft
Temporary
from 23 at 06 UTC to 23 at 12 UTC
Wind 14 kt from the East/Southeast with gusts up to 24 kt
Visibility: 3000 m
Low drifting dust

TAF: UTAV 230430Z 2306/2406 06014KT 6000 SCT050 SCT100 530005 TEMPO 2306/2312 12014G24KT 3000 DRDU

Weather observations and forecasts of more than 4000 airports (METAR and TAF reports).

The available stations are represented by yellow and red dots on the map.

Hover mouse over dot to see the name of the station.

Then click to see weather observations and forecasts.

To change the map : click on the green buttons with a black cross to zoom in, on the green button with a dash to zoom out, or on the green arrows for adjacent maps.


METAR-TAF: